sensor_id;sensor_type;location;lat;lon;timestamp;P1;durP1;ratioP1;P2;durP2;ratioP2
58071;SDS011;60383;46.626;18.866;2023-11-21T00:06:57;12.35;;;7.85;;
58071;SDS011;60383;46.626;18.866;2023-11-21T00:15:26;9.55;;;6.85;;
58071;SDS011;60383;46.626;18.866;2023-11-21T00:21:13;9.60;;;7.18;;
58071;SDS011;60383;46.626;18.866;2023-11-21T00:24:02;19.15;;;10.77;;
58071;SDS011;60383;46.626;18.866;2023-11-21T00:29:45;11.40;;;8.15;;
58071;SDS011;60383;46.626;18.866;2023-11-21T00:32:46;12.70;;;7.85;;
58071;SDS011;60383;46.626;18.866;2023-11-21T00:35:35;12.80;;;9.05;;
58071;SDS011;60383;46.626;18.866;2023-11-21T00:41:47;11.57;;;8.68;;
58071;SDS011;60383;46.626;18.866;2023-11-21T00:44:18;15.02;;;8.85;;
58071;SDS011;60383;46.626;18.866;2023-11-21T00:46:47;15.73;;;9.82;;
58071;SDS011;60383;46.626;18.866;2023-11-21T00:52:35;13.73;;;9.23;;
58071;SDS011;60383;46.626;18.866;2023-11-21T00:55:07;16.98;;;11.00;;
58071;SDS011;60383;46.626;18.866;2023-11-21T00:57:46;17.00;;;11.13;;
58071;SDS011;60383;46.626;18.866;2023-11-21T01:00:25;15.48;;;11.20;;
58071;SDS011;60383;46.626;18.866;2023-11-21T01:02:56;16.05;;;11.00;;
58071;SDS011;60383;46.626;18.866;2023-11-21T01:06:03;17.08;;;11.00;;
58071;SDS011;60383;46.626;18.866;2023-11-21T01:12:11;13.75;;;9.93;;
58071;SDS011;60383;46.626;18.866;2023-11-21T01:15:03;16.08;;;10.63;;
58071;SDS011;60383;46.626;18.866;2023-11-21T01:17:39;16.58;;;10.80;;
58071;SDS011;60383;46.626;18.866;2023-11-21T01:20:27;14.88;;;10.27;;
58071;SDS011;60383;46.626;18.866;2023-11-21T01:26:28;12.73;;;8.55;;
58071;SDS011;60383;46.626;18.866;2023-11-21T01:29:04;13.70;;;8.45;;
58071;SDS011;60383;46.626;18.866;2023-11-21T01:32:22;14.93;;;8.53;;
58071;SDS011;60383;46.626;18.866;2023-11-21T01:35:16;12.55;;;8.30;;
58071;SDS011;60383;46.626;18.866;2023-11-21T01:37:52;12.10;;;8.05;;
58071;SDS011;60383;46.626;18.866;2023-11-21T01:40:20;11.25;;;7.90;;
58071;SDS011;60383;46.626;18.866;2023-11-21T01:46:08;11.40;;;7.68;;
58071;SDS011;60383;46.626;18.866;2023-11-21T01:48:46;11.52;;;8.25;;
58071;SDS011;60383;46.626;18.866;2023-11-21T01:51:35;11.52;;;7.63;;
58071;SDS011;60383;46.626;18.866;2023-11-21T01:54:29;12.77;;;8.15;;
58071;SDS011;60383;46.626;18.866;2023-11-21T02:00:00;19.40;;;11.80;;
58071;SDS011;60383;46.626;18.866;2023-11-21T02:03:10;17.95;;;11.80;;
58071;SDS011;60383;46.626;18.866;2023-11-21T02:05:42;16.48;;;11.75;;
58071;SDS011;60383;46.626;18.866;2023-11-21T02:08:13;15.32;;;10.77;;
58071;SDS011;60383;46.626;18.866;2023-11-21T02:11:10;14.57;;;9.90;;
58071;SDS011;60383;46.626;18.866;2023-11-21T02:17:17;15.63;;;10.50;;
58071;SDS011;60383;46.626;18.866;2023-11-21T02:22:57;17.27;;;10.57;;
58071;SDS011;60383;46.626;18.866;2023-11-21T02:26:06;18.52;;;10.57;;
58071;SDS011;60383;46.626;18.866;2023-11-21T02:29:10;15.02;;;10.00;;
58071;SDS011;60383;46.626;18.866;2023-11-21T02:32:10;13.07;;;9.00;;
58071;SDS011;60383;46.626;18.866;2023-11-21T02:34:43;15.85;;;10.10;;
58071;SDS011;60383;46.626;18.866;2023-11-21T02:37:09;16.42;;;9.35;;
58071;SDS011;60383;46.626;18.866;2023-11-21T02:39:51;15.07;;;10.05;;
58071;SDS011;60383;46.626;18.866;2023-11-21T02:42:26;13.85;;;10.07;;
58071;SDS011;60383;46.626;18.866;2023-11-21T02:45:18;11.77;;;9.27;;
58071;SDS011;60383;46.626;18.866;2023-11-21T02:48:31;13.25;;;9.60;;
58071;SDS011;60383;46.626;18.866;2023-11-21T02:51:05;11.95;;;8.32;;
58071;SDS011;60383;46.626;18.866;2023-11-21T02:53:58;13.15;;;9.13;;
58071;SDS011;60383;46.626;18.866;2023-11-21T02:57:07;13.38;;;8.93;;
58071;SDS011;60383;46.626;18.866;2023-11-21T03:00:09;13.82;;;9.20;;
58071;SDS011;60383;46.626;18.866;2023-11-21T03:03:15;14.10;;;9.50;;
58071;SDS011;60383;46.626;18.866;2023-11-21T03:06:04;13.32;;;8.90;;
58071;SDS011;60383;46.626;18.866;2023-11-21T03:09:02;14.50;;;9.15;;
58071;SDS011;60383;46.626;18.866;2023-11-21T03:11:31;13.25;;;8.63;;
58071;SDS011;60383;46.626;18.866;2023-11-21T03:14:05;13.15;;;9.43;;
58071;SDS011;60383;46.626;18.866;2023-11-21T03:19:28;11.77;;;8.23;;
58071;SDS011;60383;46.626;18.866;2023-11-21T03:25:22;11.93;;;8.32;;
58071;SDS011;60383;46.626;18.866;2023-11-21T03:27:50;13.52;;;8.73;;
58071;SDS011;60383;46.626;18.866;2023-11-21T03:30:45;11.15;;;8.00;;
58071;SDS011;60383;46.626;18.866;2023-11-21T03:39:11;9.68;;;6.90;;
58071;SDS011;60383;46.626;18.866;2023-11-21T03:41:54;9.88;;;6.95;;
58071;SDS011;60383;46.626;18.866;2023-11-21T03:44:31;9.93;;;7.10;;
58071;SDS011;60383;46.626;18.866;2023-11-21T03:47:29;10.07;;;6.82;;
58071;SDS011;60383;46.626;18.866;2023-11-21T03:50:34;8.90;;;7.00;;
58071;SDS011;60383;46.626;18.866;2023-11-21T03:53:25;8.88;;;7.03;;
58071;SDS011;60383;46.626;18.866;2023-11-21T03:59:26;13.00;;;7.43;;
58071;SDS011;60383;46.626;18.866;2023-11-21T04:02:30;11.20;;;7.25;;
58071;SDS011;60383;46.626;18.866;2023-11-21T04:05:04;11.15;;;7.75;;
58071;SDS011;60383;46.626;18.866;2023-11-21T04:07:46;10.18;;;7.50;;
58071;SDS011;60383;46.626;18.866;2023-11-21T04:10:27;14.00;;;8.00;;
58071;SDS011;60383;46.626;18.866;2023-11-21T04:13:04;12.00;;;8.25;;
58071;SDS011;60383;46.626;18.866;2023-11-21T04:15:56;10.60;;;7.72;;
58071;SDS011;60383;46.626;18.866;2023-11-21T04:18:22;17.55;;;10.15;;
58071;SDS011;60383;46.626;18.866;2023-11-21T04:21:04;21.80;;;12.07;;
58071;SDS011;60383;46.626;18.866;2023-11-21T04:26:51;21.25;;;11.80;;
58071;SDS011;60383;46.626;18.866;2023-11-21T04:35:47;42.38;;;20.77;;
58071;SDS011;60383;46.626;18.866;2023-11-21T04:38:16;22.08;;;13.57;;
58071;SDS011;60383;46.626;18.866;2023-11-21T04:40:45;23.42;;;14.70;;
58071;SDS011;60383;46.626;18.866;2023-11-21T04:43:13;17.45;;;11.43;;
58071;SDS011;60383;46.626;18.866;2023-11-21T04:46:11;22.90;;;14.25;;
58071;SDS011;60383;46.626;18.866;2023-11-21T04:55:13;22.05;;;14.05;;
58071;SDS011;60383;46.626;18.866;2023-11-21T04:58:23;23.27;;;14.40;;
58071;SDS011;60383;46.626;18.866;2023-11-21T05:00:59;20.33;;;13.18;;
58071;SDS011;60383;46.626;18.866;2023-11-21T05:03:53;18.67;;;11.60;;
58071;SDS011;60383;46.626;18.866;2023-11-21T05:06:22;17.45;;;11.85;;
58071;SDS011;60383;46.626;18.866;2023-11-21T05:15:18;16.33;;;9.88;;
58071;SDS011;60383;46.626;18.866;2023-11-21T05:18:26;16.98;;;10.43;;
58071;SDS011;60383;46.626;18.866;2023-11-21T05:21:01;14.20;;;10.48;;
58071;SDS011;60383;46.626;18.866;2023-11-21T05:23:37;11.88;;;8.93;;
58071;SDS011;60383;46.626;18.866;2023-11-21T05:26:11;13.52;;;8.48;;
58071;SDS011;60383;46.626;18.866;2023-11-21T05:29:06;13.55;;;9.68;;
58071;SDS011;60383;46.626;18.866;2023-11-21T05:31:39;10.07;;;6.97;;
58071;SDS011;60383;46.626;18.866;2023-11-21T05:34:48;11.35;;;7.25;;
58071;SDS011;60383;46.626;18.866;2023-11-21T05:40:22;10.35;;;7.10;;
58071;SDS011;60383;46.626;18.866;2023-11-21T05:46:40;9.18;;;6.70;;
58071;SDS011;60383;46.626;18.866;2023-11-21T05:49:33;11.55;;;6.97;;
58071;SDS011;60383;46.626;18.866;2023-11-21T05:52:50;10.68;;;7.07;;
58071;SDS011;60383;46.626;18.866;2023-11-21T05:55:35;11.40;;;7.82;;
58071;SDS011;60383;46.626;18.866;2023-11-21T05:58:36;9.00;;;6.93;;
58071;SDS011;60383;46.626;18.866;2023-11-21T06:04:06;7.60;;;5.25;;
58071;SDS011;60383;46.626;18.866;2023-11-21T06:06:50;8.73;;;5.47;;
58071;SDS011;60383;46.626;18.866;2023-11-21T06:10:02;8.80;;;6.20;;
58071;SDS011;60383;46.626;18.866;2023-11-21T06:12:47;11.70;;;6.82;;
58071;SDS011;60383;46.626;18.866;2023-11-21T06:15:25;12.52;;;6.95;;
58071;SDS011;60383;46.626;18.866;2023-11-21T06:18:00;9.82;;;6.53;;
58071;SDS011;60383;46.626;18.866;2023-11-21T06:20:31;12.45;;;7.13;;
58071;SDS011;60383;46.626;18.866;2023-11-21T06:23:14;11.10;;;7.70;;
58071;SDS011;60383;46.626;18.866;2023-11-21T06:25:51;12.30;;;7.50;;
58071;SDS011;60383;46.626;18.866;2023-11-21T06:28:42;9.20;;;5.90;;
58071;SDS011;60383;46.626;18.866;2023-11-21T06:31:27;9.93;;;6.63;;
58071;SDS011;60383;46.626;18.866;2023-11-21T06:43:41;12.73;;;9.35;;
58071;SDS011;60383;46.626;18.866;2023-11-21T06:46:30;13.50;;;8.77;;
58071;SDS011;60383;46.626;18.866;2023-11-21T06:49:01;14.02;;;8.68;;
58071;SDS011;60383;46.626;18.866;2023-11-21T06:51:47;11.30;;;7.82;;
58071;SDS011;60383;46.626;18.866;2023-11-21T06:54:22;11.52;;;7.43;;
58071;SDS011;60383;46.626;18.866;2023-11-21T06:57:23;11.45;;;7.63;;
58071;SDS011;60383;46.626;18.866;2023-11-21T06:59:59;11.93;;;8.23;;
58071;SDS011;60383;46.626;18.866;2023-11-21T07:03:04;20.02;;;11.23;;
58071;SDS011;60383;46.626;18.866;2023-11-21T07:09:05;13.65;;;8.50;;
58071;SDS011;60383;46.626;18.866;2023-11-21T07:14:29;19.17;;;10.70;;
58071;SDS011;60383;46.626;18.866;2023-11-21T07:16:55;12.95;;;8.65;;
58071;SDS011;60383;46.626;18.866;2023-11-21T07:20:01;11.73;;;8.38;;
58071;SDS011;60383;46.626;18.866;2023-11-21T07:22:43;10.05;;;7.28;;
58071;SDS011;60383;46.626;18.866;2023-11-21T07:25:09;10.65;;;7.10;;
58071;SDS011;60383;46.626;18.866;2023-11-21T07:28:11;10.40;;;7.50;;
58071;SDS011;60383;46.626;18.866;2023-11-21T07:33:57;10.18;;;6.47;;
58071;SDS011;60383;46.626;18.866;2023-11-21T07:36:51;10.88;;;6.90;;
58071;SDS011;60383;46.626;18.866;2023-11-21T07:39:44;9.65;;;5.80;;
58071;SDS011;60383;46.626;18.866;2023-11-21T07:42:12;8.20;;;6.03;;
58071;SDS011;60383;46.626;18.866;2023-11-21T07:47:36;8.43;;;5.57;;
58071;SDS011;60383;46.626;18.866;2023-11-21T07:50:31;11.02;;;5.90;;
58071;SDS011;60383;46.626;18.866;2023-11-21T07:53:08;8.32;;;5.70;;
58071;SDS011;60383;46.626;18.866;2023-11-21T07:58:58;9.60;;;6.30;;
58071;SDS011;60383;46.626;18.866;2023-11-21T08:01:42;10.63;;;6.30;;
58071;SDS011;60383;46.626;18.866;2023-11-21T08:10:52;11.50;;;6.00;;
58071;SDS011;60383;46.626;18.866;2023-11-21T08:16:21;8.65;;;6.30;;
58071;SDS011;60383;46.626;18.866;2023-11-21T08:19:27;12.07;;;10.15;;
58071;SDS011;60383;46.626;18.866;2023-11-21T08:25:01;9.88;;;6.78;;
58071;SDS011;60383;46.626;18.866;2023-11-21T08:27:50;9.65;;;6.82;;
58071;SDS011;60383;46.626;18.866;2023-11-21T08:30:31;10.60;;;6.93;;
58071;SDS011;60383;46.626;18.866;2023-11-21T08:33:06;7.72;;;5.70;;
58071;SDS011;60383;46.626;18.866;2023-11-21T08:36:47;6.10;;;4.78;;
58071;SDS011;60383;46.626;18.866;2023-11-21T08:39:25;7.75;;;5.20;;
58071;SDS011;60383;46.626;18.866;2023-11-21T08:42:00;6.63;;;4.13;;
58071;SDS011;60383;46.626;18.866;2023-11-21T08:47:41;10.20;;;7.32;;
58071;SDS011;60383;46.626;18.866;2023-11-21T08:50:21;10.20;;;6.90;;
58071;SDS011;60383;46.626;18.866;2023-11-21T08:53:25;13.50;;;7.95;;
58071;SDS011;60383;46.626;18.866;2023-11-21T09:07:46;16.38;;;9.57;;
58071;SDS011;60383;46.626;18.866;2023-11-21T09:10:13;14.02;;;8.10;;
58071;SDS011;60383;46.626;18.866;2023-11-21T09:12:39;9.32;;;5.78;;
58071;SDS011;60383;46.626;18.866;2023-11-21T09:15:33;7.35;;;5.35;;
58071;SDS011;60383;46.626;18.866;2023-11-21T09:24:25;18.08;;;7.47;;
58071;SDS011;60383;46.626;18.866;2023-11-21T09:30:19;18.33;;;9.65;;
58071;SDS011;60383;46.626;18.866;2023-11-21T09:32:53;18.50;;;9.33;;
58071;SDS011;60383;46.626;18.866;2023-11-21T09:35:44;16.20;;;9.07;;
58071;SDS011;60383;46.626;18.866;2023-11-21T09:48:22;7.05;;;5.47;;
58071;SDS011;60383;46.626;18.866;2023-11-21T09:57:17;7.00;;;4.60;;
58071;SDS011;60383;46.626;18.866;2023-11-21T10:00:01;6.38;;;4.38;;
58071;SDS011;60383;46.626;18.866;2023-11-21T10:03:03;5.28;;;3.70;;
58071;SDS011;60383;46.626;18.866;2023-11-21T10:05:41;4.35;;;3.70;;
58071;SDS011;60383;46.626;18.866;2023-11-21T10:08:29;8.73;;;3.92;;
58071;SDS011;60383;46.626;18.866;2023-11-21T10:17:15;4.15;;;3.38;;
58071;SDS011;60383;46.626;18.866;2023-11-21T10:20:30;5.38;;;3.53;;
58071;SDS011;60383;46.626;18.866;2023-11-21T10:32:08;3.25;;;2.85;;
58071;SDS011;60383;46.626;18.866;2023-11-21T10:35:09;10.57;;;7.00;;
58071;SDS011;60383;46.626;18.866;2023-11-21T10:37:59;17.42;;;12.27;;
58071;SDS011;60383;46.626;18.866;2023-11-21T10:40:27;15.88;;;11.48;;
58071;SDS011;60383;46.626;18.866;2023-11-21T10:43:17;8.88;;;6.30;;
58071;SDS011;60383;46.626;18.866;2023-11-21T10:49:26;8.68;;;5.90;;
58071;SDS011;60383;46.626;18.866;2023-11-21T10:55:49;4.43;;;1.98;;
58071;SDS011;60383;46.626;18.866;2023-11-21T11:07:42;2.63;;;1.80;;
58071;SDS011;60383;46.626;18.866;2023-11-21T11:10:46;1.95;;;1.50;;
58071;SDS011;60383;46.626;18.866;2023-11-21T11:13:51;2.47;;;1.55;;
58071;SDS011;60383;46.626;18.866;2023-11-21T11:16:38;2.35;;;1.90;;
58071;SDS011;60383;46.626;18.866;2023-11-21T11:19:16;3.22;;;2.08;;
58071;SDS011;60383;46.626;18.866;2023-11-21T11:22:01;2.65;;;2.42;;
58071;SDS011;60383;46.626;18.866;2023-11-21T11:28:30;3.03;;;2.03;;
58071;SDS011;60383;46.626;18.866;2023-11-21T11:47:20;3.78;;;2.92;;
58071;SDS011;60383;46.626;18.866;2023-11-21T11:53:11;3.28;;;2.95;;
58071;SDS011;60383;46.626;18.866;2023-11-21T11:59:18;2.00;;;1.80;;
58071;SDS011;60383;46.626;18.866;2023-11-21T12:02:21;2.42;;;1.80;;
58071;SDS011;60383;46.626;18.866;2023-11-21T12:05:01;1.20;;;1.10;;
58071;SDS011;60383;46.626;18.866;2023-11-21T12:11:30;2.75;;;1.30;;
58071;SDS011;60383;46.626;18.866;2023-11-21T12:14:21;2.08;;;1.70;;
58071;SDS011;60383;46.626;18.866;2023-11-21T12:23:30;3.33;;;2.20;;
58071;SDS011;60383;46.626;18.866;2023-11-21T12:26:07;2.60;;;1.70;;
58071;SDS011;60383;46.626;18.866;2023-11-21T12:28:51;1.83;;;1.55;;
58071;SDS011;60383;46.626;18.866;2023-11-21T12:31:22;1.30;;;1.20;;
58071;SDS011;60383;46.626;18.866;2023-11-21T12:34:26;1.70;;;1.40;;
58071;SDS011;60383;46.626;18.866;2023-11-21T12:37:08;1.88;;;1.60;;
58071;SDS011;60383;46.626;18.866;2023-11-21T12:42:47;2.03;;;1.45;;
58071;SDS011;60383;46.626;18.866;2023-11-21T12:50:56;5.10;;;2.95;;
58071;SDS011;60383;46.626;18.866;2023-11-21T12:53:54;3.03;;;1.90;;
58071;SDS011;60383;46.626;18.866;2023-11-21T12:56:29;3.88;;;2.50;;
58071;SDS011;60383;46.626;18.866;2023-11-21T12:59:06;3.45;;;2.40;;
58071;SDS011;60383;46.626;18.866;2023-11-21T13:04:56;7.95;;;3.85;;
58071;SDS011;60383;46.626;18.866;2023-11-21T13:20:21;6.00;;;3.67;;
58071;SDS011;60383;46.626;18.866;2023-11-21T13:26:55;2.95;;;2.50;;
58071;SDS011;60383;46.626;18.866;2023-11-21T13:42:17;10.70;;;5.65;;
58071;SDS011;60383;46.626;18.866;2023-11-21T13:51:28;7.57;;;5.60;;
58071;SDS011;60383;46.626;18.866;2023-11-21T13:54:21;6.30;;;4.47;;
58071;SDS011;60383;46.626;18.866;2023-11-21T13:56:56;5.68;;;3.55;;
58071;SDS011;60383;46.626;18.866;2023-11-21T14:03:15;6.95;;;3.63;;
58071;SDS011;60383;46.626;18.866;2023-11-21T14:06:15;4.15;;;3.13;;
58071;SDS011;60383;46.626;18.866;2023-11-21T14:09:20;4.32;;;3.45;;
58071;SDS011;60383;46.626;18.866;2023-11-21T14:18:36;7.65;;;3.75;;
58071;SDS011;60383;46.626;18.866;2023-11-21T14:21:18;9.43;;;4.15;;
58071;SDS011;60383;46.626;18.866;2023-11-21T14:24:04;8.07;;;4.30;;
58071;SDS011;60383;46.626;18.866;2023-11-21T14:26:45;8.35;;;4.10;;
58071;SDS011;60383;46.626;18.866;2023-11-21T14:32:17;7.38;;;4.65;;
58071;SDS011;60383;46.626;18.866;2023-11-21T14:35:16;6.97;;;4.28;;
58071;SDS011;60383;46.626;18.866;2023-11-21T14:41:12;6.70;;;4.30;;
58071;SDS011;60383;46.626;18.866;2023-11-21T14:44:10;8.80;;;4.45;;
58071;SDS011;60383;46.626;18.866;2023-11-21T14:47:09;8.63;;;4.22;;
58071;SDS011;60383;46.626;18.866;2023-11-21T14:50:07;5.55;;;3.55;;
58071;SDS011;60383;46.626;18.866;2023-11-21T14:53:09;5.68;;;3.45;;
58071;SDS011;60383;46.626;18.866;2023-11-21T15:02:14;7.47;;;3.25;;
58071;SDS011;60383;46.626;18.866;2023-11-21T15:04:54;6.43;;;3.10;;
58071;SDS011;60383;46.626;18.866;2023-11-21T15:10:57;9.05;;;2.95;;
58071;SDS011;60383;46.626;18.866;2023-11-21T15:13:38;4.25;;;2.70;;
58071;SDS011;60383;46.626;18.866;2023-11-21T15:16:07;4.50;;;2.88;;
58071;SDS011;60383;46.626;18.866;2023-11-21T15:18:52;6.65;;;2.97;;
58071;SDS011;60383;46.626;18.866;2023-11-21T15:21:34;5.45;;;3.30;;
58071;SDS011;60383;46.626;18.866;2023-11-21T15:24:52;7.78;;;3.80;;
58071;SDS011;60383;46.626;18.866;2023-11-21T15:27:37;9.77;;;4.82;;
58071;SDS011;60383;46.626;18.866;2023-11-21T15:33:42;5.60;;;2.60;;
58071;SDS011;60383;46.626;18.866;2023-11-21T15:36:40;6.93;;;2.92;;
58071;SDS011;60383;46.626;18.866;2023-11-21T15:39:33;7.32;;;3.60;;
58071;SDS011;60383;46.626;18.866;2023-11-21T15:45:22;4.85;;;2.72;;
58071;SDS011;60383;46.626;18.866;2023-11-21T15:50:50;2.75;;;2.10;;
58071;SDS011;60383;46.626;18.866;2023-11-21T15:53:22;3.53;;;2.30;;
58071;SDS011;60383;46.626;18.866;2023-11-21T15:59:28;4.47;;;2.63;;
58071;SDS011;60383;46.626;18.866;2023-11-21T16:02:16;2.88;;;2.47;;
58071;SDS011;60383;46.626;18.866;2023-11-21T16:05:00;4.18;;;3.03;;
58071;SDS011;60383;46.626;18.866;2023-11-21T16:10:47;22.48;;;12.38;;
58071;SDS011;60383;46.626;18.866;2023-11-21T16:13:26;24.63;;;13.82;;
58071;SDS011;60383;46.626;18.866;2023-11-21T16:16:19;10.65;;;6.72;;
58071;SDS011;60383;46.626;18.866;2023-11-21T16:18:48;9.82;;;6.65;;
58071;SDS011;60383;46.626;18.866;2023-11-21T16:21:47;11.13;;;6.88;;
58071;SDS011;60383;46.626;18.866;2023-11-21T16:27:23;17.13;;;12.10;;
58071;SDS011;60383;46.626;18.866;2023-11-21T16:30:44;17.40;;;11.43;;
58071;SDS011;60383;46.626;18.866;2023-11-21T16:33:15;19.58;;;12.77;;
58071;SDS011;60383;46.626;18.866;2023-11-21T16:35:56;16.58;;;11.50;;
58071;SDS011;60383;46.626;18.866;2023-11-21T16:41:51;17.13;;;12.88;;
58071;SDS011;60383;46.626;18.866;2023-11-21T16:44:24;16.88;;;12.18;;
58071;SDS011;60383;46.626;18.866;2023-11-21T16:52:43;13.77;;;9.73;;
58071;SDS011;60383;46.626;18.866;2023-11-21T16:55:08;13.48;;;9.50;;
58071;SDS011;60383;46.626;18.866;2023-11-21T16:57:38;13.27;;;9.23;;
58071;SDS011;60383;46.626;18.866;2023-11-21T17:00:04;12.40;;;9.38;;
58071;SDS011;60383;46.626;18.866;2023-11-21T17:02:37;12.70;;;9.32;;
58071;SDS011;60383;46.626;18.866;2023-11-21T17:05:03;13.18;;;8.73;;
58071;SDS011;60383;46.626;18.866;2023-11-21T17:07:30;17.00;;;11.02;;
58071;SDS011;60383;46.626;18.866;2023-11-21T17:09:56;18.17;;;12.32;;
58071;SDS011;60383;46.626;18.866;2023-11-21T17:12:22;17.48;;;12.23;;
58071;SDS011;60383;46.626;18.866;2023-11-21T17:14:47;18.17;;;11.85;;
58071;SDS011;60383;46.626;18.866;2023-11-21T17:17:14;17.60;;;12.32;;
58071;SDS011;60383;46.626;18.866;2023-11-21T17:19:40;17.05;;;12.68;;
58071;SDS011;60383;46.626;18.866;2023-11-21T17:22:06;17.73;;;11.85;;
58071;SDS011;60383;46.626;18.866;2023-11-21T17:24:32;17.63;;;12.48;;
58071;SDS011;60383;46.626;18.866;2023-11-21T17:27:02;17.70;;;11.80;;
58071;SDS011;60383;46.626;18.866;2023-11-21T17:29:29;14.43;;;10.23;;
58071;SDS011;60383;46.626;18.866;2023-11-21T17:31:55;13.85;;;10.35;;
58071;SDS011;60383;46.626;18.866;2023-11-21T17:34:20;14.38;;;10.90;;
58071;SDS011;60383;46.626;18.866;2023-11-21T17:36:46;18.23;;;12.38;;
58071;SDS011;60383;46.626;18.866;2023-11-21T17:39:12;14.95;;;10.52;;
58071;SDS011;60383;46.626;18.866;2023-11-21T17:41:38;14.20;;;10.23;;
58071;SDS011;60383;46.626;18.866;2023-11-21T17:44:04;17.58;;;11.18;;
58071;SDS011;60383;46.626;18.866;2023-11-21T17:46:30;15.45;;;12.73;;
58071;SDS011;60383;46.626;18.866;2023-11-21T17:48:56;15.85;;;11.07;;
58071;SDS011;60383;46.626;18.866;2023-11-21T17:51:22;12.52;;;9.20;;
58071;SDS011;60383;46.626;18.866;2023-11-21T17:53:47;12.77;;;10.45;;
58071;SDS011;60383;46.626;18.866;2023-11-21T17:56:18;15.57;;;10.65;;
58071;SDS011;60383;46.626;18.866;2023-11-21T17:58:44;24.20;;;13.73;;
58071;SDS011;60383;46.626;18.866;2023-11-21T18:01:18;29.10;;;15.02;;
58071;SDS011;60383;46.626;18.866;2023-11-21T18:03:45;43.40;;;21.13;;
58071;SDS011;60383;46.626;18.866;2023-11-21T18:06:11;43.35;;;23.40;;
58071;SDS011;60383;46.626;18.866;2023-11-21T18:08:38;34.90;;;20.17;;
58071;SDS011;60383;46.626;18.866;2023-11-21T18:11:05;34.42;;;19.50;;
58071;SDS011;60383;46.626;18.866;2023-11-21T18:13:31;29.23;;;18.02;;
58071;SDS011;60383;46.626;18.866;2023-11-21T18:15:56;27.65;;;16.40;;
58071;SDS011;60383;46.626;18.866;2023-11-21T18:18:22;21.80;;;14.20;;
58071;SDS011;60383;46.626;18.866;2023-11-21T18:20:49;21.83;;;15.82;;
58071;SDS011;60383;46.626;18.866;2023-11-21T18:23:15;22.45;;;15.63;;
58071;SDS011;60383;46.626;18.866;2023-11-21T18:25:41;24.55;;;14.57;;
58071;SDS011;60383;46.626;18.866;2023-11-21T18:28:07;21.52;;;12.88;;
58071;SDS011;60383;46.626;18.866;2023-11-21T18:30:33;20.45;;;12.85;;
58071;SDS011;60383;46.626;18.866;2023-11-21T18:32:59;15.55;;;10.27;;
58071;SDS011;60383;46.626;18.866;2023-11-21T18:35:24;18.17;;;10.35;;
58071;SDS011;60383;46.626;18.866;2023-11-21T18:37:50;12.77;;;10.07;;
58071;SDS011;60383;46.626;18.866;2023-11-21T18:40:15;13.23;;;9.93;;
58071;SDS011;60383;46.626;18.866;2023-11-21T18:42:41;16.48;;;10.25;;
58071;SDS011;60383;46.626;18.866;2023-11-21T18:45:09;14.50;;;9.52;;
58071;SDS011;60383;46.626;18.866;2023-11-21T18:47:35;15.75;;;9.77;;
58071;SDS011;60383;46.626;18.866;2023-11-21T18:50:01;15.77;;;9.98;;
58071;SDS011;60383;46.626;18.866;2023-11-21T18:52:27;14.65;;;9.57;;
58071;SDS011;60383;46.626;18.866;2023-11-21T18:54:53;14.88;;;10.15;;
58071;SDS011;60383;46.626;18.866;2023-11-21T18:57:18;18.52;;;11.75;;
58071;SDS011;60383;46.626;18.866;2023-11-21T18:59:44;16.88;;;11.15;;
58071;SDS011;60383;46.626;18.866;2023-11-21T19:02:10;18.23;;;11.18;;
58071;SDS011;60383;46.626;18.866;2023-11-21T19:04:39;15.70;;;10.48;;
58071;SDS011;60383;46.626;18.866;2023-11-21T19:07:05;16.55;;;10.90;;
58071;SDS011;60383;46.626;18.866;2023-11-21T19:09:31;14.50;;;9.90;;
58071;SDS011;60383;46.626;18.866;2023-11-21T19:12:00;15.93;;;10.35;;
58071;SDS011;60383;46.626;18.866;2023-11-21T19:14:26;15.20;;;10.23;;
58071;SDS011;60383;46.626;18.866;2023-11-21T19:16:51;13.73;;;10.05;;
58071;SDS011;60383;46.626;18.866;2023-11-21T19:19:17;15.48;;;11.20;;
58071;SDS011;60383;46.626;18.866;2023-11-21T19:21:43;15.00;;;10.85;;
58071;SDS011;60383;46.626;18.866;2023-11-21T19:24:09;17.13;;;11.15;;
58071;SDS011;60383;46.626;18.866;2023-11-21T19:26:36;17.17;;;11.20;;
58071;SDS011;60383;46.626;18.866;2023-11-21T19:29:03;13.73;;;10.60;;
58071;SDS011;60383;46.626;18.866;2023-11-21T19:31:30;16.42;;;10.85;;
58071;SDS011;60383;46.626;18.866;2023-11-21T19:33:56;15.63;;;10.55;;
58071;SDS011;60383;46.626;18.866;2023-11-21T19:36:22;16.75;;;12.05;;
58071;SDS011;60383;46.626;18.866;2023-11-21T19:38:48;16.00;;;12.20;;
58071;SDS011;60383;46.626;18.866;2023-11-21T19:41:17;17.40;;;12.88;;
58071;SDS011;60383;46.626;18.866;2023-11-21T19:43:44;17.13;;;12.32;;
58071;SDS011;60383;46.626;18.866;2023-11-21T19:46:12;16.13;;;11.32;;
58071;SDS011;60383;46.626;18.866;2023-11-21T19:48:38;13.57;;;9.13;;
58071;SDS011;60383;46.626;18.866;2023-11-21T19:51:06;12.65;;;9.65;;
58071;SDS011;60383;46.626;18.866;2023-11-21T19:53:32;13.80;;;9.98;;
58071;SDS011;60383;46.626;18.866;2023-11-21T19:56:01;13.97;;;9.83;;
58071;SDS011;60383;46.626;18.866;2023-11-21T19:58:27;12.07;;;8.75;;
58071;SDS011;60383;46.626;18.866;2023-11-21T20:00:54;13.55;;;8.10;;
58071;SDS011;60383;46.626;18.866;2023-11-21T20:03:19;11.23;;;8.65;;
58071;SDS011;60383;46.626;18.866;2023-11-21T20:05:46;12.73;;;9.13;;
58071;SDS011;60383;46.626;18.866;2023-11-21T20:08:12;12.85;;;8.68;;
58071;SDS011;60383;46.626;18.866;2023-11-21T20:10:40;14.05;;;8.75;;
58071;SDS011;60383;46.626;18.866;2023-11-21T20:13:06;11.32;;;8.07;;
58071;SDS011;60383;46.626;18.866;2023-11-21T20:15:32;11.02;;;7.72;;
58071;SDS011;60383;46.626;18.866;2023-11-21T20:17:59;16.00;;;7.93;;
58071;SDS011;60383;46.626;18.866;2023-11-21T20:20:24;12.27;;;7.50;;
58071;SDS011;60383;46.626;18.866;2023-11-21T20:22:50;11.20;;;7.85;;
58071;SDS011;60383;46.626;18.866;2023-11-21T20:25:16;12.88;;;8.30;;
58071;SDS011;60383;46.626;18.866;2023-11-21T20:27:43;13.13;;;8.50;;
58071;SDS011;60383;46.626;18.866;2023-11-21T20:30:09;12.63;;;8.20;;
58071;SDS011;60383;46.626;18.866;2023-11-21T20:32:35;11.45;;;7.63;;
58071;SDS011;60383;46.626;18.866;2023-11-21T20:35:04;11.43;;;7.05;;
58071;SDS011;60383;46.626;18.866;2023-11-21T20:37:30;12.32;;;8.18;;
58071;SDS011;60383;46.626;18.866;2023-11-21T20:39:58;12.00;;;7.45;;
58071;SDS011;60383;46.626;18.866;2023-11-21T20:42:25;11.50;;;7.57;;
58071;SDS011;60383;46.626;18.866;2023-11-21T20:44:53;11.30;;;7.65;;
58071;SDS011;60383;46.626;18.866;2023-11-21T20:47:19;22.38;;;13.25;;
58071;SDS011;60383;46.626;18.866;2023-11-21T20:49:44;36.10;;;20.27;;
58071;SDS011;60383;46.626;18.866;2023-11-21T20:52:10;29.10;;;17.55;;
58071;SDS011;60383;46.626;18.866;2023-11-21T20:54:35;23.23;;;16.77;;
58071;SDS011;60383;46.626;18.866;2023-11-21T20:57:01;20.77;;;13.98;;
58071;SDS011;60383;46.626;18.866;2023-11-21T20:59:29;23.00;;;15.38;;
58071;SDS011;60383;46.626;18.866;2023-11-21T21:01:55;21.00;;;14.23;;
58071;SDS011;60383;46.626;18.866;2023-11-21T21:04:20;25.20;;;17.40;;
58071;SDS011;60383;46.626;18.866;2023-11-21T21:06:46;21.17;;;13.63;;
58071;SDS011;60383;46.626;18.866;2023-11-21T21:09:11;15.68;;;11.00;;